createdAt,value
2023-04-15T00:01:52.600Z,13.93
2023-04-15T00:03:57.960Z,12.63
2023-04-15T00:06:00.704Z,12.63
2023-04-15T00:08:03.278Z,11.45
2023-04-15T00:10:07.073Z,11.73
2023-04-15T00:12:09.918Z,11.73
2023-04-15T00:14:12.939Z,12.63
2023-04-15T00:16:15.458Z,12.43
2023-04-15T00:18:18.032Z,10.48
2023-04-15T00:20:23.828Z,10.40
2023-04-15T00:22:27.354Z,12.63
2023-04-15T00:24:31.576Z,12.38
2023-04-15T00:28:36.654Z,11.43
2023-04-15T00:30:39.380Z,12.95
2023-04-15T00:32:44.867Z,12.00
2023-04-15T00:34:47.338Z,11.80
2023-04-15T00:36:52.745Z,11.63
2023-04-15T00:38:55.609Z,11.55
2023-04-15T00:40:58.211Z,13.82
2023-04-15T00:43:02.175Z,11.97
2023-04-15T00:45:05.900Z,12.50
2023-04-15T00:47:09.191Z,11.87
2023-04-15T00:49:12.053Z,11.27
2023-04-15T00:51:15.087Z,11.63
2023-04-15T00:53:20.188Z,12.95
2023-04-15T00:55:22.919Z,13.70
2023-04-15T00:57:26.407Z,15.13
2023-04-15T00:59:30.482Z,13.73
2023-04-15T01:01:36.685Z,12.93
2023-04-15T01:03:39.355Z,12.40
2023-04-15T01:05:41.868Z,11.68
2023-04-15T01:07:44.481Z,14.52
2023-04-15T01:09:50.053Z,13.50
2023-04-15T01:11:53.052Z,15.40
2023-04-15T01:13:57.691Z,13.80
2023-04-15T01:16:03.148Z,13.73
2023-04-15T01:18:06.264Z,13.10
2023-04-15T01:20:12.803Z,13.00
2023-04-15T01:22:16.324Z,14.88
2023-04-15T01:24:19.516Z,13.57
2023-04-15T01:26:24.808Z,13.32
2023-04-15T01:28:27.662Z,12.25
2023-04-15T01:30:34.023Z,12.27
2023-04-15T01:32:37.151Z,11.63
2023-04-15T01:34:39.772Z,13.82
2023-04-15T01:36:42.280Z,12.20
2023-04-15T01:38:44.868Z,12.45
2023-04-15T01:40:47.403Z,14.75
2023-04-15T01:42:52.697Z,12.02
2023-04-15T01:44:56.049Z,13.32
2023-04-15T01:46:58.801Z,12.82
2023-04-15T01:49:02.815Z,13.02
2023-04-15T01:51:05.962Z,12.88
2023-04-15T01:53:08.808Z,13.18
2023-04-15T01:55:11.762Z,12.88
2023-04-15T01:57:14.373Z,13.40
2023-04-15T01:59:19.541Z,12.07
2023-04-15T02:01:22.466Z,12.63
2023-04-15T02:03:25.990Z,13.43
2023-04-15T02:05:29.061Z,13.23
2023-04-15T02:07:32.546Z,13.65
2023-04-15T02:09:35.069Z,12.93
2023-04-15T02:11:37.900Z,12.75
2023-04-15T02:13:40.649Z,13.70
2023-04-15T02:15:50.861Z,16.83
2023-04-15T02:17:55.692Z,12.38
2023-04-15T02:19:58.230Z,13.52
2023-04-15T02:22:01.861Z,13.32
2023-04-15T02:24:04.847Z,12.32
2023-04-15T02:26:10.295Z,14.73
2023-04-15T02:28:12.936Z,13.25
2023-04-15T02:30:15.625Z,14.18
2023-04-15T02:32:22.244Z,16.67
2023-04-15T02:34:24.768Z,14.15
2023-04-15T02:36:27.328Z,17.42
2023-04-15T02:38:30.734Z,19.67
2023-04-15T02:40:33.618Z,26.40
2023-04-15T02:42:36.320Z,18.13
2023-04-15T02:44:39.558Z,27.08
2023-04-15T02:46:43.394Z,19.20
2023-04-15T02:48:48.940Z,25.63
2023-04-15T02:50:52.043Z,22.52
2023-04-15T02:52:54.763Z,19.60
2023-04-15T02:55:00.878Z,16.88
2023-04-15T02:57:06.954Z,22.45
2023-04-15T02:59:09.914Z,19.52
2023-04-15T03:01:12.905Z,19.35
2023-04-15T03:03:16.698Z,18.38
2023-04-15T03:05:24.782Z,15.40
2023-04-15T03:07:27.436Z,15.70
2023-04-15T03:09:30.538Z,17.25
2023-04-15T03:13:41.911Z,16.77
2023-04-15T03:15:51.557Z,15.27
2023-04-15T03:17:54.137Z,15.73
2023-04-15T03:19:56.712Z,15.77
2023-04-15T03:22:02.397Z,15.27
2023-04-15T03:24:05.638Z,15.43
2023-04-15T03:26:08.316Z,14.95
2023-04-15T03:28:12.305Z,18.13
2023-04-15T03:30:15.106Z,15.80
2023-04-15T03:32:17.878Z,16.02
2023-04-15T03:34:23.267Z,16.48
2023-04-15T03:36:26.454Z,15.75
2023-04-15T03:38:31.944Z,15.25
2023-04-15T03:40:34.494Z,16.27
2023-04-15T03:42:37.034Z,16.17
2023-04-15T03:44:39.615Z,17.88
2023-04-15T03:46:43.058Z,16.40
2023-04-15T03:48:45.742Z,13.95
2023-04-15T03:50:48.567Z,15.82
2023-04-15T03:52:51.422Z,18.25
2023-04-15T03:54:56.516Z,16.02
2023-04-15T03:56:58.973Z,15.85
2023-04-15T03:59:01.702Z,16.00
2023-04-15T04:01:04.520Z,17.30
2023-04-15T04:03:07.493Z,16.70
2023-04-15T04:05:10.892Z,16.02
2023-04-15T04:07:16.809Z,17.10
2023-04-15T04:09:19.299Z,21.55
2023-04-15T04:11:24.373Z,18.33
2023-04-15T04:13:26.876Z,19.65
2023-04-15T04:15:29.431Z,21.17
2023-04-15T04:17:31.990Z,23.63
2023-04-15T04:19:34.948Z,22.65
2023-04-15T04:21:37.615Z,27.17
2023-04-15T04:23:40.220Z,29.23
2023-04-15T04:25:42.846Z,26.98
2023-04-15T04:27:48.013Z,27.15
2023-04-15T04:29:50.559Z,25.85
2023-04-15T04:31:53.153Z,29.45
2023-04-15T04:33:55.759Z,30.55
2023-04-15T04:35:58.257Z,30.17
2023-04-15T04:38:00.775Z,28.48
2023-04-15T04:40:03.513Z,28.88
2023-04-15T04:42:05.957Z,27.90
2023-04-15T04:44:11.007Z,29.83
2023-04-15T04:46:13.650Z,27.73
2023-04-15T04:48:17.574Z,27.67
2023-04-15T04:50:20.164Z,28.42
2023-04-15T04:52:22.692Z,25.58
2023-04-15T04:54:25.299Z,27.10
2023-04-15T04:56:27.811Z,22.90
2023-04-15T04:58:30.358Z,27.20
2023-04-15T05:00:35.583Z,27.80
2023-04-15T05:02:38.813Z,26.48
2023-04-15T05:04:42.077Z,25.57
2023-04-15T05:06:44.634Z,30.20
2023-04-15T05:08:47.364Z,30.75
2023-04-15T05:10:49.871Z,28.25
2023-04-15T05:12:52.865Z,29.23
2023-04-15T05:14:55.364Z,26.98
2023-04-15T05:17:00.533Z,28.35
2023-04-15T05:19:03.316Z,27.08
2023-04-15T05:21:06.482Z,27.40
2023-04-15T05:23:09.075Z,27.65
2023-04-15T05:25:11.650Z,28.45
2023-04-15T05:27:14.150Z,26.67
2023-04-15T05:29:16.985Z,26.13
2023-04-15T05:31:19.651Z,28.08
2023-04-15T05:33:25.112Z,26.05
2023-04-15T05:35:27.588Z,25.80
2023-04-15T05:37:30.042Z,28.13
2023-04-15T05:39:32.979Z,27.33
2023-04-15T05:41:35.837Z,26.85
2023-04-15T05:43:38.343Z,26.10
2023-04-15T05:45:41.051Z,31.23
2023-04-15T05:47:43.654Z,26.02
2023-04-15T05:49:49.535Z,26.37
2023-04-15T05:51:52.189Z,28.63
2023-04-15T05:53:54.678Z,28.13
2023-04-15T05:55:57.415Z,27.95
2023-04-15T05:58:00.099Z,26.20
2023-04-15T06:00:03.039Z,28.15
2023-04-15T06:02:12.330Z,25.38
2023-04-15T06:04:15.676Z,25.83
2023-04-15T06:06:21.184Z,26.00
2023-04-15T06:08:23.988Z,29.42
2023-04-15T06:10:26.474Z,29.52
2023-04-15T06:12:29.044Z,29.75
2023-04-15T06:14:31.595Z,28.52
2023-04-15T06:16:34.395Z,33.20
2023-04-15T06:18:37.062Z,29.30
2023-04-15T06:20:39.612Z,30.70
2023-04-15T06:22:44.741Z,29.80
2023-04-15T06:24:47.786Z,30.73
2023-04-15T06:26:50.804Z,32.60
2023-04-15T06:28:55.871Z,30.20
2023-04-15T06:30:58.341Z,29.50
2023-04-15T06:33:00.865Z,29.70
2023-04-15T06:35:04.248Z,29.33
2023-04-15T06:37:06.951Z,36.93
2023-04-15T06:39:12.483Z,30.42
2023-04-15T06:41:15.031Z,30.08
2023-04-15T06:43:17.628Z,29.63
2023-04-15T06:45:20.200Z,29.95
2023-04-15T06:47:23.078Z,34.33
2023-04-15T06:49:25.835Z,38.60
2023-04-15T06:51:29.433Z,29.33
2023-04-15T06:53:32.203Z,30.50
2023-04-15T06:55:37.353Z,34.13
2023-04-15T06:57:40.164Z,33.88
2023-04-15T06:59:43.670Z,38.28
2023-04-15T07:01:46.735Z,37.28
2023-04-15T07:03:49.323Z,39.05
2023-04-15T07:05:51.966Z,38.10
2023-04-15T07:07:54.517Z,36.00
2023-04-15T07:09:57.472Z,39.15
2023-04-15T07:12:03.056Z,27.38
2023-04-15T07:14:06.860Z,31.88
2023-04-15T07:16:09.682Z,34.97
2023-04-15T07:18:12.163Z,41.47
2023-04-15T07:20:14.779Z,35.53
2023-04-15T07:22:17.264Z,22.92
2023-04-15T07:24:20.946Z,27.50
2023-04-15T07:26:23.693Z,20.85
2023-04-15T07:28:28.847Z,22.60
2023-04-15T07:30:31.344Z,57.63
2023-04-15T07:32:33.945Z,19.77
2023-04-15T07:34:36.841Z,16.92
2023-04-15T07:36:40.562Z,24.10
2023-04-15T07:38:43.362Z,19.15
2023-04-15T07:40:47.176Z,20.55
2023-04-15T07:42:49.953Z,18.98
2023-04-15T07:44:55.393Z,32.60
2023-04-15T07:46:58.191Z,13.77
2023-04-15T07:49:01.779Z,14.45
2023-04-15T07:51:06.976Z,11.88
2023-04-15T07:53:10.410Z,14.27
2023-04-15T07:55:13.048Z,13.93
2023-04-15T07:57:17.589Z,13.90
2023-04-15T07:59:20.347Z,13.75
2023-04-15T08:01:25.629Z,22.23
2023-04-15T08:03:30.677Z,14.80
2023-04-15T08:05:33.358Z,15.30
2023-04-15T08:07:36.716Z,16.67
2023-04-15T08:09:39.151Z,16.37
2023-04-15T08:11:43.252Z,13.48
2023-04-15T08:13:46.435Z,22.77
2023-04-15T08:16:14.739Z,13.43
2023-04-15T08:18:19.932Z,13.88
2023-04-15T08:20:22.396Z,13.13
2023-04-15T08:22:24.864Z,14.85
2023-04-15T08:24:27.558Z,12.00
2023-04-15T08:26:32.382Z,12.35
2023-04-15T08:28:35.164Z,28.88
2023-04-15T08:30:37.643Z,12.18
2023-04-15T08:32:40.381Z,11.40
2023-04-15T08:34:45.600Z,32.08
2023-04-15T08:36:49.453Z,14.70
2023-04-15T08:38:52.283Z,17.08
2023-04-15T08:40:58.717Z,13.05
2023-04-15T08:43:03.531Z,10.35
2023-04-15T08:45:09.527Z,23.85
2023-04-15T08:47:15.072Z,123.85
2023-04-15T08:49:19.449Z,19.00
2023-04-15T08:53:30.122Z,27.40
2023-04-15T08:55:39.438Z,13.82
2023-04-15T08:57:42.231Z,10.38
2023-04-15T08:59:45.648Z,9.27
2023-04-15T09:03:54.981Z,27.00
2023-04-15T09:05:58.884Z,9.93
2023-04-15T09:08:04.985Z,10.68
2023-04-15T09:10:09.133Z,17.10
2023-04-15T09:12:12.384Z,8.43
2023-04-15T09:14:15.197Z,13.05
2023-04-15T09:16:17.930Z,14.00
2023-04-15T09:18:29.522Z,13.40
2023-04-15T09:20:40.135Z,18.30
2023-04-15T09:22:43.932Z,18.35
2023-04-15T09:24:49.272Z,10.25
2023-04-15T09:26:57.204Z,20.40
2023-04-15T09:29:04.801Z,6.45
2023-04-15T09:31:07.346Z,47.67
2023-04-15T09:33:11.137Z,9.10
2023-04-15T09:35:14.295Z,5.75
2023-04-15T09:37:31.703Z,21.58
2023-04-15T09:39:51.604Z,12.50
2023-04-15T09:42:10.282Z,21.05
2023-04-15T09:44:23.290Z,5.32
2023-04-15T09:46:43.960Z,5.72
2023-04-15T09:48:46.843Z,15.38
2023-04-15T09:50:50.513Z,9.38
2023-04-15T09:52:53.016Z,9.02
2023-04-15T09:55:01.116Z,5.38
2023-04-15T09:57:07.792Z,28.65
2023-04-15T09:59:10.339Z,24.50
2023-04-15T10:01:12.952Z,9.07
2023-04-15T10:03:20.864Z,55.13
2023-04-15T10:05:24.123Z,6.75
2023-04-15T10:07:27.086Z,45.67
2023-04-15T10:09:30.528Z,49.55
2023-04-15T10:11:36.177Z,31.00
2023-04-15T10:16:12.970Z,5.57
2023-04-15T10:18:19.966Z,69.22
2023-04-15T10:20:23.454Z,36.67
2023-04-15T10:22:28.409Z,7.80
2023-04-15T10:24:32.359Z,7.13
2023-04-15T10:26:38.055Z,17.13
2023-04-15T10:28:40.692Z,10.27
2023-04-15T10:30:43.942Z,60.70
2023-04-15T10:32:47.679Z,7.13
2023-04-15T10:34:54.220Z,5.78
2023-04-15T10:36:58.106Z,39.63
2023-04-15T10:39:00.561Z,5.07
2023-04-15T10:41:21.189Z,7.45
2023-04-15T10:43:28.269Z,6.78
2023-04-15T10:45:34.782Z,14.52
2023-04-15T10:47:37.434Z,82.47
2023-04-15T10:49:48.944Z,20.70
2023-04-15T10:51:53.673Z,39.75
2023-04-15T10:56:12.003Z,22.08
2023-04-15T11:00:37.664Z,30.40
2023-04-15T11:02:48.092Z,16.10
2023-04-15T11:04:57.788Z,20.70
2023-04-15T11:07:07.035Z,8.38
2023-04-15T11:09:29.699Z,7.57
2023-04-15T11:12:02.275Z,21.13
2023-04-15T11:14:04.911Z,12.77
2023-04-15T11:16:10.173Z,18.77
2023-04-15T11:18:13.951Z,6.60
2023-04-15T11:20:18.160Z,7.22
2023-04-15T11:22:20.748Z,25.00
2023-04-15T11:24:27.405Z,6.95
2023-04-15T11:26:29.940Z,41.88
2023-04-15T11:28:33.391Z,9.55
2023-04-15T11:30:37.710Z,13.80
2023-04-15T11:34:48.753Z,39.10
2023-04-15T11:36:52.123Z,43.10
2023-04-15T11:38:54.980Z,13.63
2023-04-15T11:40:57.784Z,20.48
2023-04-15T11:43:08.981Z,21.20
2023-04-15T11:45:13.443Z,10.23
2023-04-15T11:47:25.353Z,40.25
2023-04-15T11:49:32.032Z,46.35
2023-04-15T11:51:38.625Z,143.93
2023-04-15T11:53:42.895Z,36.55
2023-04-15T11:55:47.923Z,75.28
2023-04-15T11:57:51.392Z,21.50
2023-04-15T11:59:55.778Z,51.53
2023-04-15T12:01:59.932Z,9.55
2023-04-15T12:06:16.998Z,17.05
2023-04-15T12:08:19.901Z,13.70
2023-04-15T12:10:25.908Z,33.15
2023-04-15T12:12:29.028Z,20.38
2023-04-15T12:14:32.941Z,13.20
2023-04-15T12:16:47.946Z,19.15
2023-04-15T12:18:53.040Z,20.17
2023-04-15T12:20:55.946Z,23.15
2023-04-15T12:23:08.875Z,45.25
2023-04-15T12:25:11.498Z,13.23
2023-04-15T12:27:21.625Z,23.60
2023-04-15T12:29:27.557Z,32.95
2023-04-15T12:31:30.547Z,31.30
2023-04-15T12:33:33.884Z,10.90
2023-04-15T12:35:36.463Z,55.38
2023-04-15T12:37:38.947Z,14.50
2023-04-15T12:39:45.694Z,26.85
2023-04-15T12:41:48.273Z,17.55
2023-04-15T12:43:51.658Z,11.45
2023-04-15T12:45:54.615Z,13.65
2023-04-15T12:47:57.336Z,10.73
2023-04-15T12:49:59.902Z,9.80
2023-04-15T12:52:04.133Z,7.78
2023-04-15T12:56:14.317Z,95.07
2023-04-15T12:58:16.826Z,36.95
2023-04-15T13:00:20.302Z,16.17
2023-04-15T13:02:25.832Z,41.00
2023-04-15T13:04:31.523Z,17.02
2023-04-15T13:06:34.648Z,19.58
2023-04-15T13:08:42.552Z,20.02
2023-04-15T13:10:48.452Z,15.23
2023-04-15T13:12:54.523Z,17.83
2023-04-15T13:14:57.085Z,19.98
2023-04-15T13:16:59.902Z,16.55
2023-04-15T13:19:03.732Z,28.65
2023-04-15T13:21:07.774Z,23.10
2023-04-15T13:23:13.909Z,23.23
2023-04-15T13:25:17.552Z,35.40
2023-04-15T13:27:20.273Z,18.92
2023-04-15T13:29:25.377Z,29.95
2023-04-15T13:31:27.955Z,18.13
2023-04-15T13:33:30.587Z,19.38
2023-04-15T13:35:33.343Z,49.35
2023-04-15T13:37:36.090Z,16.70
2023-04-15T13:39:38.606Z,12.10
2023-04-15T13:41:41.286Z,27.90
2023-04-15T13:43:43.801Z,45.03
2023-04-15T13:45:49.450Z,28.58
2023-04-15T13:47:52.050Z,21.13
2023-04-15T13:49:56.524Z,17.40
2023-04-15T13:51:59.039Z,23.42
2023-04-15T13:54:01.560Z,14.77
2023-04-15T13:56:04.805Z,23.80
2023-04-15T13:58:07.401Z,26.88
2023-04-15T14:00:11.535Z,14.05
2023-04-15T14:02:17.520Z,29.08
2023-04-15T14:04:20.280Z,72.40
2023-04-15T14:06:22.956Z,48.55
2023-04-15T14:08:27.449Z,27.42
2023-04-15T14:10:30.006Z,23.70
2023-04-15T14:12:32.586Z,20.90
2023-04-15T14:14:35.196Z,19.70
2023-04-15T14:16:38.347Z,60.28
2023-04-15T14:18:44.752Z,30.60
2023-04-15T14:20:47.390Z,25.33
2023-04-15T14:22:49.956Z,30.40
2023-04-15T14:24:53.967Z,38.13
2023-04-15T14:26:57.753Z,24.13
2023-04-15T14:29:00.813Z,23.67
2023-04-15T14:31:03.381Z,18.20
2023-04-15T14:33:05.823Z,13.73
2023-04-15T14:35:11.510Z,31.33
2023-04-15T14:37:14.235Z,34.28
2023-04-15T14:39:16.792Z,89.72
2023-04-15T14:41:19.465Z,23.80
2023-04-15T14:43:22.074Z,24.98
2023-04-15T14:45:24.678Z,31.33
2023-04-15T14:47:28.786Z,35.85
2023-04-15T14:49:34.157Z,48.65
2023-04-15T14:51:40.759Z,41.15
2023-04-15T14:53:44.405Z,27.27
2023-04-15T14:55:46.932Z,51.00
2023-04-15T14:57:49.407Z,34.50
2023-04-15T14:59:56.852Z,32.58
2023-04-15T15:01:59.874Z,31.52
2023-04-15T15:04:04.117Z,56.38
2023-04-15T15:06:07.088Z,21.33
2023-04-15T15:08:12.845Z,50.47
2023-04-15T15:10:15.459Z,55.33
2023-04-15T15:12:17.934Z,35.67
2023-04-15T15:14:20.605Z,29.38
2023-04-15T15:16:23.262Z,41.10
2023-04-15T15:18:25.940Z,103.78
2023-04-15T15:20:28.608Z,33.65
2023-04-15T15:22:31.185Z,28.13
2023-04-15T15:24:36.297Z,31.88
2023-04-15T15:26:40.262Z,27.05
2023-04-15T15:28:42.794Z,23.25
2023-04-15T15:30:45.509Z,21.83
2023-04-15T15:32:48.071Z,28.33
2023-04-15T15:34:53.730Z,42.17
2023-04-15T15:36:57.110Z,51.95
2023-04-15T15:38:59.866Z,30.37
2023-04-15T15:41:05.284Z,50.13
2023-04-15T15:43:08.733Z,24.25
2023-04-15T15:45:11.891Z,27.25
2023-04-15T15:47:14.348Z,27.42
2023-04-15T15:49:19.481Z,22.67
2023-04-15T15:51:22.136Z,32.90
2023-04-15T15:53:26.063Z,23.75
2023-04-15T15:55:28.677Z,27.60
2023-04-15T15:57:33.701Z,32.40
2023-04-15T15:59:36.546Z,32.70
2023-04-15T16:01:39.037Z,34.17
2023-04-15T16:03:42.216Z,41.35
2023-04-15T16:05:47.225Z,19.73
2023-04-15T16:07:49.904Z,29.95
2023-04-15T16:09:53.043Z,42.75
2023-04-15T16:11:56.098Z,42.53
2023-04-15T16:14:01.304Z,31.67
2023-04-15T16:16:04.030Z,29.38
2023-04-15T16:18:06.551Z,29.92
2023-04-15T16:20:10.411Z,55.40
2023-04-15T16:22:13.175Z,31.17
2023-04-15T16:24:15.683Z,44.90
2023-04-15T16:26:18.472Z,24.02
2023-04-15T16:28:26.816Z,34.55
2023-04-15T16:30:35.202Z,18.52
2023-04-15T16:32:37.795Z,16.70
2023-04-15T16:34:41.410Z,32.28
2023-04-15T16:36:43.984Z,28.77
2023-04-15T16:38:48.729Z,17.25
2023-04-15T16:40:51.811Z,35.13
2023-04-15T16:42:54.298Z,31.70
2023-04-15T16:44:56.823Z,47.28
2023-04-15T16:47:03.398Z,44.30
2023-04-15T16:49:06.396Z,36.13
2023-04-15T16:51:09.205Z,30.55
2023-04-15T16:53:11.844Z,25.92
2023-04-15T16:55:14.423Z,33.28
2023-04-15T16:57:16.887Z,48.65
2023-04-15T16:59:21.095Z,37.15
2023-04-15T17:01:23.954Z,47.72
2023-04-15T17:03:29.377Z,43.83
2023-04-15T17:05:32.084Z,24.80
2023-04-15T17:07:35.405Z,29.40
2023-04-15T17:09:39.779Z,30.10
2023-04-15T17:13:47.046Z,29.52
2023-04-15T17:15:49.683Z,23.65
2023-04-15T17:17:52.357Z,27.60
2023-04-15T17:19:57.654Z,31.98
2023-04-15T17:22:00.437Z,25.63
2023-04-15T17:24:03.109Z,20.77
2023-04-15T17:26:05.772Z,52.80
2023-04-15T17:28:09.917Z,34.05
2023-04-15T17:30:12.984Z,24.67
2023-04-15T17:32:16.682Z,28.42
2023-04-15T17:34:19.427Z,29.63
2023-04-15T17:36:25.082Z,23.80
2023-04-15T17:38:27.896Z,32.45
2023-04-15T17:40:30.566Z,66.35
2023-04-15T17:42:33.246Z,33.83
2023-04-15T17:44:35.907Z,29.48
2023-04-15T17:46:38.677Z,31.13
2023-04-15T17:48:45.975Z,31.02
2023-04-15T17:50:50.487Z,31.05
2023-04-15T17:52:57.962Z,34.40
2023-04-15T17:55:00.788Z,24.65
2023-04-15T17:57:03.415Z,36.55
2023-04-15T17:59:07.343Z,38.38
2023-04-15T18:01:09.939Z,56.08
2023-04-15T18:03:12.932Z,29.98
2023-04-15T18:05:16.143Z,31.58
2023-04-15T18:07:18.943Z,29.58
2023-04-15T18:09:25.131Z,36.10
2023-04-15T18:11:27.864Z,26.70
2023-04-15T18:13:30.372Z,39.05
2023-04-15T18:15:33.593Z,36.08
2023-04-15T18:17:36.605Z,41.47
2023-04-15T18:19:41.899Z,31.40
2023-04-15T18:21:45.467Z,31.95
2023-04-15T18:23:49.344Z,29.10
2023-04-15T18:25:54.688Z,28.48
2023-04-15T18:27:57.396Z,32.15
2023-04-15T18:30:00.134Z,39.70
2023-04-15T18:32:03.414Z,38.00
2023-04-15T18:34:07.501Z,66.28
2023-04-15T18:36:10.794Z,44.15
2023-04-15T18:38:13.525Z,39.65
2023-04-15T18:40:16.443Z,31.88
2023-04-15T18:42:22.696Z,32.13
2023-04-15T18:44:25.432Z,34.55
2023-04-15T18:46:28.697Z,29.52
2023-04-15T18:48:31.363Z,49.92
2023-04-15T18:50:34.312Z,34.10
2023-04-15T18:52:37.128Z,33.88
2023-04-15T18:54:39.992Z,32.13
2023-04-15T18:56:42.859Z,27.70
2023-04-15T18:59:27.599Z,38.58
2023-04-15T19:01:11.949Z,32.28
2023-04-15T19:03:14.974Z,34.35
2023-04-15T19:05:17.674Z,38.72
2023-04-15T19:07:20.408Z,37.83
2023-04-15T19:09:23.883Z,44.15
2023-04-15T19:11:28.495Z,47.47
2023-04-15T19:13:31.107Z,34.25
2023-04-15T19:15:38.594Z,35.30
2023-04-15T19:17:41.432Z,31.27
2023-04-15T19:19:43.940Z,58.28
2023-04-15T19:21:50.053Z,44.53
2023-04-15T19:23:53.012Z,55.35
2023-04-15T19:25:57.327Z,50.45
2023-04-15T19:30:03.633Z,37.05
2023-04-15T19:32:10.123Z,67.07
2023-04-15T19:34:12.756Z,37.17
2023-04-15T19:36:15.671Z,48.78
2023-04-15T19:38:18.574Z,40.10
2023-04-15T19:40:21.448Z,43.97
2023-04-15T19:42:23.939Z,58.55
2023-04-15T19:44:26.688Z,53.10
2023-04-15T19:46:29.825Z,60.03
2023-04-15T19:48:35.075Z,90.97
2023-04-15T19:50:38.087Z,67.47
2023-04-15T19:52:40.862Z,64.30
2023-04-15T19:54:43.646Z,58.20
2023-04-15T19:56:49.475Z,81.70
2023-04-15T19:58:53.357Z,83.85
2023-04-15T20:00:56.914Z,54.00
2023-04-15T20:02:59.655Z,62.58
2023-04-15T20:05:09.903Z,68.75
2023-04-15T20:07:12.662Z,53.60
2023-04-15T20:09:15.233Z,94.22
2023-04-15T20:11:18.610Z,70.20
2023-04-15T20:13:21.243Z,61.30
2023-04-15T20:15:24.265Z,46.70
2023-04-15T20:17:26.995Z,93.28
2023-04-15T20:19:29.611Z,71.57
2023-04-15T20:21:34.852Z,93.68
2023-04-15T20:23:38.516Z,109.65
2023-04-15T20:25:41.585Z,110.28
2023-04-15T20:27:44.368Z,91.47
2023-04-15T20:29:46.947Z,101.68
2023-04-15T20:31:49.593Z,95.93
2023-04-15T20:33:53.368Z,75.57
2023-04-15T20:35:58.611Z,68.05
2023-04-15T20:38:04.748Z,84.97
2023-04-15T20:40:08.927Z,110.65
2023-04-15T20:42:14.108Z,95.13
2023-04-15T20:44:17.011Z,88.22
2023-04-15T20:46:22.712Z,107.07
2023-04-15T20:48:26.426Z,84.53
2023-04-15T20:50:30.787Z,87.22
2023-04-15T20:54:38.449Z,64.95
2023-04-15T20:56:40.965Z,61.88
2023-04-15T20:58:43.597Z,90.38
2023-04-15T21:00:46.550Z,100.05
2023-04-15T21:02:49.323Z,93.78
2023-04-15T21:04:52.065Z,103.30
2023-04-15T21:06:54.653Z,86.03
2023-04-15T21:09:00.175Z,74.18
2023-04-15T21:11:05.271Z,82.82
2023-04-15T21:13:08.785Z,88.60
2023-04-15T21:15:11.780Z,85.55
2023-04-15T21:17:16.737Z,85.05
2023-04-15T21:19:19.303Z,82.63
2023-04-15T21:21:21.910Z,109.88
2023-04-15T21:23:24.474Z,83.40
2023-04-15T21:25:26.998Z,80.20
2023-04-15T21:27:32.118Z,104.93
2023-04-15T21:29:35.870Z,93.40
2023-04-15T21:31:38.528Z,85.97
2023-04-15T21:33:41.367Z,95.30
2023-04-15T21:35:44.092Z,83.05
2023-04-15T21:37:49.762Z,80.72
2023-04-15T21:39:52.419Z,85.00
2023-04-15T21:41:55.089Z,68.13
2023-04-15T21:44:00.609Z,57.90
2023-04-15T21:46:22.417Z,72.10
2023-04-15T21:48:25.924Z,88.82
2023-04-15T21:50:28.693Z,82.03
2023-04-15T21:52:31.148Z,76.38
2023-04-15T21:54:33.855Z,69.95
2023-04-15T21:56:38.175Z,72.03
2023-04-15T22:00:45.846Z,52.10
2023-04-15T22:02:48.442Z,62.65
2023-04-15T22:04:51.122Z,58.00
2023-04-15T22:06:55.891Z,76.13
2023-04-15T22:08:58.502Z,56.28
2023-04-15T22:11:01.460Z,55.35
2023-04-15T22:13:08.709Z,62.05
2023-04-15T22:15:14.908Z,68.75
2023-04-15T22:17:20.261Z,63.15
2023-04-15T22:19:23.194Z,63.78
2023-04-15T22:21:26.883Z,66.20
2023-04-15T22:23:29.469Z,61.50
2023-04-15T22:25:32.124Z,56.03
2023-04-15T22:27:34.718Z,60.55
2023-04-15T22:29:37.314Z,66.65
2023-04-15T22:31:39.932Z,67.75
2023-04-15T22:33:45.609Z,67.80
2023-04-15T22:35:48.115Z,74.70
2023-04-15T22:37:50.793Z,70.50
2023-04-15T22:39:53.297Z,62.78
2023-04-15T22:41:57.110Z,55.20
2023-04-15T22:43:59.662Z,58.35
2023-04-15T22:46:02.311Z,70.60
2023-04-15T22:48:05.792Z,70.97
2023-04-15T22:50:11.812Z,80.22
2023-04-15T22:52:23.308Z,65.43
2023-04-15T22:54:30.041Z,63.15
2023-04-15T22:56:32.537Z,60.72
2023-04-15T22:58:35.091Z,65.10
2023-04-15T23:00:38.023Z,66.30
2023-04-15T23:02:40.856Z,56.83
2023-04-15T23:04:43.707Z,60.63
2023-04-15T23:06:49.125Z,65.50
2023-04-15T23:08:51.679Z,71.88
2023-04-15T23:10:54.300Z,61.95
2023-04-15T23:12:56.846Z,82.43
2023-04-15T23:14:59.511Z,68.72
2023-04-15T23:17:02.798Z,63.63
2023-04-15T23:19:05.408Z,63.80
2023-04-15T23:21:09.186Z,65.70
2023-04-15T23:23:14.379Z,57.90
2023-04-15T23:25:17.039Z,60.05
2023-04-15T23:27:19.669Z,63.67
2023-04-15T23:29:22.239Z,45.08
2023-04-15T23:31:24.870Z,67.60
2023-04-15T23:33:27.617Z,65.13
2023-04-15T23:35:30.184Z,62.08
2023-04-15T23:37:32.732Z,61.17
2023-04-15T23:39:37.880Z,65.10
2023-04-15T23:41:41.327Z,58.22
2023-04-15T23:43:43.869Z,68.03
2023-04-15T23:45:46.396Z,60.25
2023-04-15T23:47:49.005Z,60.83
2023-04-15T23:49:51.637Z,66.65
2023-04-15T23:51:54.218Z,70.63
2023-04-15T23:53:56.795Z,67.30
2023-04-15T23:56:01.906Z,62.58
2023-04-15T23:58:04.517Z,59.70
